Time;durP1;ratioP1;P1;durP2;ratioP2;P2;SDS_P1;SDS_P2;PMS_P1;PMS_P2;Temp;Humidity;BMP_temperature;BMP_pressure;BME280_temperature;BME280_humidity;BME280_pressure;Samples;Min_cycle;Max_cycle;Signal;HPM_P1;HPM_P2
2022/04/13 00:02:04;;;;;;;5.90;2.97;;;12.50;99.90;;;;;;5035776;28;20031;-87
2022/04/13 00:04:30;;;;;;;7.05;2.80;;;12.50;99.90;;;;;;5035571;28;20082;-87
2022/04/13 00:06:56;;;;;;;4.63;2.65;;;12.50;99.90;;;;;;5035806;28;20032;-87
2022/04/13 00:09:21;;;;;;;3.83;2.45;;;12.50;99.90;;;;;;5035525;28;20112;-87
2022/04/13 00:11:47;;;;;;;7.40;2.72;;;12.50;99.90;;;;;;5053517;28;20377;-87
2022/04/13 00:14:13;;;;;;;10.88;2.80;;;12.50;99.90;;;;;;5036011;28;20025;-87
2022/04/13 00:16:39;;;;;;;6.63;2.63;;;12.50;99.90;;;;;;5035436;28;20055;-88
2022/04/13 00:19:05;;;;;;;4.82;3.00;;;12.50;99.90;;;;;;5035404;28;20025;-87
2022/04/13 00:21:31;;;;;;;7.53;2.85;;;12.50;99.90;;;;;;5035198;28;20049;-87
2022/04/13 00:23:56;;;;;;;5.97;2.83;;;12.50;99.90;;;;;;5035557;28;20468;-87
2022/04/13 00:26:23;;;;;;;5.05;2.80;;;12.50;99.90;;;;;;5035369;28;20024;-87
2022/04/13 00:28:49;;;;;;;5.47;2.80;;;12.50;99.90;;;;;;5053229;28;20025;-87
2022/04/13 00:31:14;;;;;;;5.03;2.80;;;12.50;99.90;;;;;;5053120;28;20099;-87
2022/04/13 00:33:40;;;;;;;5.20;3.00;;;12.50;99.90;;;;;;5053419;28;20025;-88
2022/04/13 00:36:06;;;;;;;3.85;2.53;;;12.50;99.90;;;;;;5035315;28;20388;-87
2022/04/13 00:38:31;;;;;;;5.15;2.95;;;12.50;99.90;;;;;;5035404;28;20037;-87
2022/04/13 00:40:57;;;;;;;6.45;2.90;;;12.50;99.90;;;;;;5035191;28;20116;-87
2022/04/13 00:43:24;;;;;;;3.80;2.58;;;12.50;99.90;;;;;;5035038;28;20028;-87
2022/04/13 00:45:51;;;;;;;6.55;2.80;;;12.50;99.90;;;;;;5052633;28;20020;-88
2022/04/13 00:48:40;;;;;;;4.82;2.70;;;12.50;99.90;;;;;;5034877;28;20060;-86
2022/04/13 00:51:07;;;;;;;3.90;2.42;;;12.50;99.90;;;;;;5035027;28;20036;-87
2022/04/13 00:53:35;;;;;;;5.20;2.65;;;12.50;99.90;;;;;;5035109;28;20067;-87
2022/04/13 00:56:03;;;;;;;4.90;2.53;;;12.50;99.90;;;;;;5034927;28;20036;-87
2022/04/13 00:58:32;;;;;;;4.38;2.65;;;12.50;99.90;;;;;;5034996;28;20116;-87
2022/04/13 01:01:02;;;;;;;5.35;2.60;;;12.40;99.90;;;;;;5035021;28;20484;-88
2022/04/13 01:03:29;;;;;;;2.92;2.22;;;12.40;99.90;;;;;;5034923;28;20473;-87
2022/04/13 01:05:56;;;;;;;6.40;2.90;;;12.40;99.90;;;;;;5034934;28;20484;-88
2022/04/13 01:08:21;;;;;;;5.10;2.95;;;12.40;99.90;;;;;;5052856;28;20017;-88
2022/04/13 01:10:49;;;;;;;5.28;2.58;;;12.50;99.90;;;;;;5052688;28;20029;-87
2022/04/13 01:13:16;;;;;;;7.18;2.70;;;12.40;99.90;;;;;;5034947;28;20143;-87
2022/04/13 01:15:42;;;;;;;4.00;2.50;;;12.40;99.90;;;;;;5035605;28;20029;-87
2022/04/13 01:18:08;;;;;;;4.22;2.75;;;12.40;99.90;;;;;;5035171;28;20388;-87
2022/04/13 01:20:37;;;;;;;3.92;2.65;;;12.40;99.90;;;;;;5031239;28;20053;-87
2022/04/13 01:23:03;;;;;;;3.60;2.50;;;12.40;99.90;;;;;;5015003;28;20125;-87
2022/04/13 01:25:29;;;;;;;4.15;2.63;;;12.40;99.90;;;;;;5015004;28;20017;-87
2022/04/13 01:27:55;;;;;;;5.80;2.55;;;12.40;99.90;;;;;;5015071;28;20025;-87
2022/04/13 01:30:23;;;;;;;3.30;2.17;;;12.40;99.90;;;;;;5015037;28;20021;-88
2022/04/13 01:32:51;;;;;;;3.70;2.25;;;12.30;99.90;;;;;;5014994;28;20056;-88
2022/04/13 01:35:17;;;;;;;4.57;2.88;;;12.30;99.90;;;;;;5032688;28;20026;-87
2022/04/13 01:37:42;;;;;;;7.57;2.53;;;12.30;99.90;;;;;;5014894;28;20026;-87
2022/04/13 01:40:08;;;;;;;3.85;2.28;;;12.30;99.90;;;;;;5015000;28;20021;-87
2022/04/13 01:42:34;;;;;;;5.00;2.28;;;12.30;99.90;;;;;;5014777;28;20021;-88
2022/04/13 01:45:00;;;;;;;4.40;2.50;;;12.30;99.90;;;;;;5014926;28;20028;-87
2022/04/13 01:47:25;;;;;;;5.07;2.67;;;12.30;99.90;;;;;;5015141;28;20191;-87
2022/04/13 01:49:51;;;;;;;3.60;2.20;;;12.30;99.90;;;;;;5014792;28;20048;-87
2022/04/13 01:52:17;;;;;;;3.20;2.38;;;12.30;99.90;;;;;;5014709;28;20026;-87
2022/04/13 01:54:42;;;;;;;6.78;2.60;;;12.30;99.90;;;;;;5014743;28;20184;-88
2022/04/13 01:57:08;;;;;;;6.57;2.88;;;12.30;99.90;;;;;;5014763;28;20022;-87
2022/04/13 01:59:34;;;;;;;5.10;2.55;;;12.30;99.90;;;;;;5017004;28;20393;-87
2022/04/13 02:02:02;;;;;;;9.48;2.70;;;12.30;99.90;;;;;;5018129;28;20025;-87
2022/04/13 02:04:27;;;;;;;5.43;2.60;;;12.30;99.90;;;;;;5018024;28;20055;-87
2022/04/13 02:06:54;;;;;;;5.97;2.50;;;12.30;99.90;;;;;;5018033;28;20104;-87
2022/04/13 02:09:20;;;;;;;4.57;2.10;;;12.30;99.90;;;;;;5017976;28;20052;-87
2022/04/13 02:11:46;;;;;;;4.32;2.35;;;12.30;99.90;;;;;;5018034;28;20136;-88
2022/04/13 02:14:13;;;;;;;4.63;2.47;;;12.30;99.90;;;;;;5035761;28;20028;-88
2022/04/13 02:16:39;;;;;;;3.65;2.40;;;12.30;99.90;;;;;;5017922;28;20029;-88
2022/04/13 02:19:11;;;;;;;6.60;2.65;;;12.30;99.90;;;;;;5017773;28;20030;-87
2022/04/13 02:21:37;;;;;;;4.90;2.50;;;12.20;99.90;;;;;;5017596;28;20132;-88
2022/04/13 02:24:04;;;;;;;3.70;2.15;;;12.20;99.90;;;;;;5017737;28;20574;-87
2022/04/13 02:26:29;;;;;;;5.45;2.20;;;12.20;99.90;;;;;;5017688;28;20029;-87
2022/04/13 02:28:55;;;;;;;6.63;2.65;;;12.20;99.90;;;;;;5035993;28;20021;-87
2022/04/13 02:31:21;;;;;;;4.30;2.20;;;12.20;99.90;;;;;;5035354;28;20427;-87
2022/04/13 02:33:47;;;;;;;6.35;2.63;;;12.20;99.90;;;;;;5017534;28;20048;-88
2022/04/13 02:36:13;;;;;;;4.38;2.35;;;12.20;99.90;;;;;;5017549;28;20453;-87
2022/04/13 02:38:39;;;;;;;7.90;2.60;;;12.20;99.90;;;;;;5017508;28;20369;-87
2022/04/13 02:41:05;;;;;;;4.50;2.45;;;12.20;99.90;;;;;;5017431;28;20026;-87
2022/04/13 02:43:30;;;;;;;5.85;2.38;;;12.20;99.90;;;;;;5035058;28;20052;-87
2022/04/13 02:45:57;;;;;;;7.10;2.25;;;12.20;99.90;;;;;;5017325;28;20032;-88
2022/04/13 02:48:23;;;;;;;5.68;2.90;;;12.10;99.90;;;;;;5018001;28;20032;-87
2022/04/13 02:50:49;;;;;;;5.68;2.30;;;12.10;99.90;;;;;;5017087;28;20026;-88
2022/04/13 02:53:15;;;;;;;3.47;2.13;;;12.10;99.90;;;;;;5035197;28;20076;-87
2022/04/13 02:55:41;;;;;;;4.13;2.30;;;12.10;99.90;;;;;;5034991;28;20030;-88
2022/04/13 02:58:07;;;;;;;5.10;2.72;;;12.10;99.90;;;;;;5017092;28;20048;-88
2022/04/13 03:00:33;;;;;;;5.85;2.28;;;12.10;99.90;;;;;;5017001;28;20025;-88
2022/04/13 03:02:58;;;;;;;5.18;2.47;;;12.10;99.90;;;;;;5016978;28;20087;-88
2022/04/13 03:05:24;;;;;;;3.67;2.03;;;12.10;99.90;;;;;;5017584;28;20028;-88
2022/04/13 03:07:51;;;;;;;4.22;2.38;;;12.10;99.90;;;;;;5016920;28;20116;-87
2022/04/13 03:10:16;;;;;;;4.63;2.38;;;12.10;99.90;;;;;;5016396;28;20047;-88
2022/04/13 03:12:42;;;;;;;3.70;2.42;;;12.10;99.90;;;;;;5016874;28;20025;-88
2022/04/13 03:15:09;;;;;;;3.92;2.25;;;12.10;99.90;;;;;;5016799;28;20056;-88
2022/04/13 03:17:35;;;;;;;2.92;2.00;;;12.00;99.90;;;;;;5016736;28;20072;-88
2022/04/13 03:20:01;;;;;;;6.72;2.50;;;12.00;99.90;;;;;;5016808;28;20485;-88
2022/04/13 03:22:27;;;;;;;4.72;2.20;;;12.10;99.90;;;;;;5016552;28;20566;-87
2022/04/13 03:24:53;;;;;;;6.55;2.85;;;12.10;99.90;;;;;;5034311;28;20025;-88
2022/04/13 03:27:19;;;;;;;4.13;2.42;;;12.00;99.90;;;;;;5016630;28;20032;-88
2022/04/13 03:29:45;;;;;;;4.40;2.20;;;12.10;99.90;;;;;;5034185;28;20370;-87
2022/04/13 03:32:10;;;;;;;3.60;2.10;;;12.10;99.90;;;;;;5016565;28;20029;-88
2022/04/13 03:34:36;;;;;;;6.68;2.50;;;12.00;99.90;;;;;;5016485;28;20480;-88
2022/04/13 03:37:02;;;;;;;3.97;2.25;;;12.00;99.90;;;;;;5016431;28;20370;-88
2022/04/13 03:39:31;;;;;;;7.95;2.47;;;12.00;99.90;;;;;;5034065;28;20053;-88
2022/04/13 03:41:56;;;;;;;4.88;2.40;;;12.00;99.90;;;;;;5016276;28;20039;-87
2022/04/13 03:44:22;;;;;;;3.28;2.13;;;12.00;99.90;;;;;;5016144;28;20447;-88
2022/04/13 03:46:49;;;;;;;2.92;2.13;;;12.00;99.90;;;;;;5034017;28;20021;-88
2022/04/13 03:49:14;;;;;;;3.80;2.15;;;12.00;99.90;;;;;;5016289;28;20099;-88
2022/04/13 03:51:40;;;;;;;5.43;2.53;;;12.00;99.90;;;;;;5016125;28;20045;-88
2022/04/13 03:54:06;;;;;;;5.03;2.50;;;12.00;99.90;;;;;;5016154;28;20039;-88
2022/04/13 03:56:33;;;;;;;3.55;2.08;;;12.00;99.90;;;;;;5016527;28;20116;-87
2022/04/13 03:59:00;;;;;;;4.32;2.42;;;12.00;99.90;;;;;;5016078;28;20025;-88
2022/04/13 04:01:26;;;;;;;6.65;2.42;;;11.90;99.90;;;;;;5015996;28;20025;-87
2022/04/13 04:03:53;;;;;;;3.60;2.33;;;12.00;99.90;;;;;;5033595;28;20045;-88
2022/04/13 04:06:19;;;;;;;4.15;2.20;;;12.00;99.90;;;;;;5015997;28;20029;-87
2022/04/13 04:08:44;;;;;;;3.95;2.60;;;12.00;99.90;;;;;;5015872;28;20060;-87
2022/04/13 04:11:10;;;;;;;4.80;2.67;;;11.90;99.90;;;;;;5015833;28;20022;-88
2022/04/13 04:13:36;;;;;;;13.70;5.30;;;11.90;99.90;;;;;;5015780;28;20034;-88
2022/04/13 04:16:02;;;;;;;10.45;4.55;;;11.90;99.90;;;;;;5033603;28;20021;-88
2022/04/13 04:18:28;;;;;;;8.50;3.67;;;11.90;99.90;;;;;;5015739;28;20442;-88
2022/04/13 04:20:53;;;;;;;5.80;3.22;;;11.90;99.90;;;;;;5014987;28;20061;-88
2022/04/13 04:23:19;;;;;;;7.15;3.13;;;11.90;99.90;;;;;;5015539;28;20026;-88
2022/04/13 04:25:45;;;;;;;6.70;3.00;;;11.90;99.90;;;;;;5015682;28;20017;-87
2022/04/13 04:28:11;;;;;;;5.25;3.28;;;11.90;99.90;;;;;;5033434;28;20025;-88
2022/04/13 04:30:41;;;;;;;4.68;2.92;;;11.90;99.90;;;;;;5015595;28;20033;-88
2022/04/13 04:33:08;;;;;;;5.95;2.90;;;11.90;99.90;;;;;;5033293;28;20108;-88
2022/04/13 04:35:35;;;;;;;5.50;2.90;;;11.90;99.90;;;;;;5015699;28;20033;-88
2022/04/13 04:38:01;;;;;;;4.95;3.05;;;11.80;99.90;;;;;;5015461;28;20029;-87
2022/04/13 04:40:27;;;;;;;7.38;3.60;;;11.90;99.90;;;;;;5015414;28;20548;-88
2022/04/13 04:42:52;;;;;;;8.55;3.17;;;11.80;99.90;;;;;;5015327;28;20113;-87
2022/04/13 04:45:22;;;;;;;4.47;2.63;;;11.80;99.90;;;;;;5015336;28;20481;-88
2022/04/13 04:47:49;;;;;;;5.63;2.95;;;11.80;99.90;;;;;;5015350;28;20101;-88
2022/04/13 04:50:16;;;;;;;5.30;3.03;;;11.80;99.90;;;;;;5033213;28;20024;-88
2022/04/13 04:52:43;;;;;;;4.53;2.65;;;11.80;99.90;;;;;;5015387;28;20022;-88
2022/04/13 04:55:10;;;;;;;3.60;2.55;;;11.80;99.90;;;;;;5015351;28;20136;-87
2022/04/13 04:57:36;;;;;;;4.25;2.55;;;11.80;99.90;;;;;;5032998;28;20500;-88
2022/04/13 05:00:05;;;;;;;3.83;2.40;;;11.80;99.90;;;;;;5015231;28;20053;-87
2022/04/13 05:02:31;;;;;;;6.82;2.67;;;11.80;99.90;;;;;;5015225;28;20401;-88
2022/04/13 05:04:57;;;;;;;6.45;2.92;;;11.80;99.90;;;;;;5032835;28;20040;-88
2022/04/13 05:07:22;;;;;;;6.78;4.10;;;11.80;99.90;;;;;;5015246;28;20025;-88
2022/04/13 05:09:48;;;;;;;6.15;4.18;;;11.80;99.90;;;;;;5015107;28;20018;-87
2022/04/13 05:12:14;;;;;;;8.07;3.78;;;11.80;99.90;;;;;;5015279;28;20043;-87
2022/04/13 05:14:39;;;;;;;6.13;3.63;;;11.80;99.90;;;;;;5015121;28;20091;-88
2022/04/13 05:17:05;;;;;;;6.88;3.50;;;11.80;99.90;;;;;;5015086;28;20504;-87
2022/04/13 05:19:33;;;;;;;5.65;3.03;;;11.80;99.90;;;;;;5015097;28;20477;-87
2022/04/13 05:21:58;;;;;;;6.00;3.30;;;11.80;99.90;;;;;;5014866;28;20564;-88
2022/04/13 05:24:24;;;;;;;7.30;3.20;;;11.80;99.90;;;;;;5014963;28;20116;-87
2022/04/13 05:26:50;;;;;;;3.97;2.70;;;11.80;99.90;;;;;;5015100;28;20022;-88
2022/04/13 05:29:15;;;;;;;6.63;3.20;;;11.80;99.90;;;;;;5015142;28;20021;-87
2022/04/13 05:31:41;;;;;;;6.68;2.97;;;11.80;99.90;;;;;;5032864;28;20026;-88
2022/04/13 05:34:08;;;;;;;6.55;2.97;;;11.80;99.90;;;;;;5036285;28;20025;-88
2022/04/13 05:36:34;;;;;;;7.15;3.05;;;11.80;99.90;;;;;;5018628;28;20136;-87
2022/04/13 05:38:59;;;;;;;5.35;3.15;;;11.80;99.90;;;;;;5018593;28;20116;-87
2022/04/13 05:41:25;;;;;;;7.18;3.03;;;11.80;99.90;;;;;;5018602;28;20025;-88
2022/04/13 05:43:51;;;;;;;9.30;2.60;;;11.80;99.90;;;;;;5018467;28;20025;-88
2022/04/13 05:46:16;;;;;;;9.95;3.40;;;11.80;99.90;;;;;;5018537;28;20025;-88
2022/04/13 05:48:42;;;;;;;7.25;3.03;;;11.80;99.90;;;;;;5018378;28;20017;-88
2022/04/13 05:51:09;;;;;;;4.70;2.95;;;11.80;99.90;;;;;;5018277;28;20026;-88
2022/04/13 05:53:35;;;;;;;7.63;3.00;;;11.90;99.90;;;;;;5035950;28;20388;-88
2022/04/13 05:56:01;;;;;;;6.72;2.80;;;11.80;99.90;;;;;;5018362;28;20120;-88
2022/04/13 05:58:27;;;;;;;4.50;2.85;;;11.90;99.90;;;;;;5018148;28;20100;-88
2022/04/13 06:00:55;;;;;;;5.70;2.60;;;11.90;99.90;;;;;;5018070;28;20025;-88
2022/04/13 06:03:23;;;;;;;7.32;2.78;;;11.90;99.90;;;;;;5017901;28;20036;-88
2022/04/13 06:05:52;;;;;;;6.05;3.00;;;11.90;99.90;;;;;;5017968;28;20025;-88
2022/04/13 06:08:18;;;;;;;7.57;2.70;;;11.90;99.90;;;;;;5035725;28;20018;-88
2022/04/13 06:10:44;;;;;;;7.30;2.95;;;11.90;99.90;;;;;;5017993;28;20380;-88
2022/04/13 06:13:10;;;;;;;7.43;2.55;;;11.90;99.90;;;;;;5017854;28;20503;-88
2022/04/13 06:15:35;;;;;;;6.25;2.67;;;11.90;99.90;;;;;;5017833;28;20061;-88
2022/04/13 06:18:01;;;;;;;5.93;2.55;;;11.90;99.90;;;;;;5017782;28;20488;-88
2022/04/13 06:20:27;;;;;;;5.22;2.72;;;11.90;99.90;;;;;;5019888;28;20387;-88
2022/04/13 06:22:53;;;;;;;7.00;2.80;;;11.90;99.90;;;;;;5037474;28;20439;-88
2022/04/13 06:25:19;;;;;;;3.90;2.72;;;11.90;99.90;;;;;;5037508;28;20032;-88
2022/04/13 06:27:45;;;;;;;5.68;2.63;;;11.90;99.90;;;;;;5037394;28;20028;-87
2022/04/13 06:30:12;;;;;;;5.20;2.72;;;12.00;99.90;;;;;;5037402;28;20025;-88
2022/04/13 06:32:45;;;;;;;4.03;2.60;;;12.00;99.90;;;;;;5037282;28;20017;-88
2022/04/13 06:35:16;;;;;;;6.88;2.70;;;12.00;99.90;;;;;;5037322;28;20053;-88
2022/04/13 06:37:43;;;;;;;5.18;2.78;;;12.00;99.90;;;;;;5037329;28;20021;-88
2022/04/13 06:40:10;;;;;;;4.82;2.45;;;12.00;99.90;;;;;;5037154;28;20377;-88
2022/04/13 06:42:37;;;;;;;6.38;2.80;;;12.00;99.90;;;;;;5037103;28;20021;-88
2022/04/13 06:45:07;;;;;;;6.22;2.40;;;12.00;99.90;;;;;;5036065;28;20032;-88
2022/04/13 06:47:33;;;;;;;4.50;2.53;;;12.10;99.90;;;;;;5055203;28;20021;-88
2022/04/13 06:49:59;;;;;;;5.18;3.03;;;12.10;99.90;;;;;;5036910;28;20028;-88
2022/04/13 06:52:24;;;;;;;4.05;2.47;;;12.10;99.90;;;;;;5036915;28;20028;-88
2022/04/13 06:54:50;;;;;;;4.15;2.78;;;12.10;99.90;;;;;;5036922;28;20036;-89
2022/04/13 06:57:16;;;;;;;7.20;2.80;;;12.10;99.90;;;;;;5054799;28;20104;-88
2022/04/13 06:59:42;;;;;;;3.92;2.10;;;12.20;99.90;;;;;;5036899;28;20025;-88
2022/04/13 07:02:10;;;;;;;4.70;2.58;;;12.20;99.90;;;;;;5036769;28;20025;-88
2022/04/13 07:04:37;;;;;;;7.63;2.40;;;12.20;99.90;;;;;;5036785;28;20021;-89
2022/04/13 07:07:03;;;;;;;3.13;2.20;;;12.20;99.90;;;;;;5036767;28;20021;-88
2022/04/13 07:09:29;;;;;;;4.40;2.45;;;12.30;99.90;;;;;;5036618;28;20361;-89
2022/04/13 07:11:54;;;;;;;6.05;2.70;;;12.30;99.90;;;;;;5036590;28;20021;-88
2022/04/13 07:14:20;;;;;;;3.88;2.38;;;12.30;99.90;;;;;;5036711;28;20112;-88
2022/04/13 07:16:46;;;;;;;4.00;2.53;;;12.40;99.90;;;;;;5037095;28;20031;-88
2022/04/13 07:19:12;;;;;;;3.65;2.22;;;12.40;99.90;;;;;;5036663;28;20029;-88
2022/04/13 07:21:37;;;;;;;4.22;2.50;;;12.40;99.90;;;;;;5036395;28;20155;-88
2022/04/13 07:24:03;;;;;;;3.70;2.20;;;12.40;99.90;;;;;;5036578;28;20033;-88
2022/04/13 07:26:29;;;;;;;3.40;2.15;;;12.50;99.90;;;;;;5036304;28;20021;-88
2022/04/13 07:28:55;;;;;;;3.90;2.55;;;12.50;99.90;;;;;;5054468;28;20021;-89
2022/04/13 07:31:20;;;;;;;3.25;2.00;;;12.50;99.90;;;;;;5036456;28;20028;-88
2022/04/13 07:33:46;;;;;;;4.28;2.53;;;12.60;99.90;;;;;;5054427;28;20170;-88
2022/04/13 07:36:12;;;;;;;5.97;2.70;;;12.60;99.90;;;;;;5054284;28;20055;-88
2022/04/13 07:38:38;;;;;;;4.18;2.70;;;12.60;99.90;;;;;;5054564;28;20033;-89
2022/04/13 07:41:04;;;;;;;4.00;2.35;;;12.70;99.90;;;;;;5036436;28;20056;-88
2022/04/13 07:43:30;;;;;;;3.33;2.28;;;12.70;99.90;;;;;;5036357;28;20028;-88
2022/04/13 07:45:55;;;;;;;4.97;2.33;;;12.70;99.90;;;;;;5036440;28;20021;-88
2022/04/13 07:48:21;;;;;;;5.10;2.45;;;12.80;99.90;;;;;;5035954;28;20384;-88
2022/04/13 07:50:47;;;;;;;3.80;2.35;;;12.80;99.90;;;;;;5036143;28;20115;-88
2022/04/13 07:53:13;;;;;;;3.65;2.38;;;12.80;99.90;;;;;;5036164;28;20411;-88
2022/04/13 07:55:39;;;;;;;3.92;2.35;;;12.90;99.90;;;;;;5036145;28;20043;-88
2022/04/13 07:58:05;;;;;;;5.95;2.05;;;12.90;99.90;;;;;;5036218;28;20033;-88
2022/04/13 08:00:30;;;;;;;4.57;2.53;;;12.90;99.90;;;;;;5035881;28;20109;-87
2022/04/13 08:02:56;;;;;;;4.78;2.60;;;13.00;99.90;;;;;;5035950;28;20492;-88
2022/04/13 08:05:22;;;;;;;4.20;2.20;;;13.00;99.90;;;;;;5054181;28;20021;-89
2022/04/13 08:07:48;;;;;;;6.13;2.30;;;13.00;99.90;;;;;;5054681;28;20052;-89
2022/04/13 08:10:14;;;;;;;4.10;2.10;;;13.00;99.90;;;;;;5036324;28;20166;-89
2022/04/13 08:12:41;;;;;;;4.63;2.03;;;13.10;99.90;;;;;;5036562;28;20030;-88
2022/04/13 08:15:08;;;;;;;3.67;2.20;;;13.10;99.90;;;;;;5036055;28;20037;-89
2022/04/13 08:17:34;;;;;;;3.88;2.25;;;13.10;99.90;;;;;;5035951;28;20031;-88
2022/04/13 08:19:59;;;;;;;3.92;2.22;;;13.20;99.90;;;;;;5035808;28;20033;-88
2022/04/13 08:22:27;;;;;;;4.95;2.30;;;13.20;99.90;;;;;;5035462;28;20373;-88
2022/04/13 08:24:53;;;;;;;6.18;2.95;;;13.20;99.90;;;;;;5036363;28;20125;-87
2022/04/13 08:27:20;;;;;;;5.45;2.40;;;13.20;99.90;;;;;;5036989;28;20044;-88
2022/04/13 08:29:48;;;;;;;4.28;2.30;;;13.30;99.90;;;;;;5053978;28;20025;-88
2022/04/13 08:32:18;;;;;;;5.75;2.25;;;13.30;99.90;;;;;;5035601;28;20070;-89
2022/04/13 08:34:45;;;;;;;6.47;2.03;;;13.30;99.90;;;;;;5035868;28;20043;-88
2022/04/13 08:37:12;;;;;;;3.15;2.00;;;13.40;99.90;;;;;;5035815;28;20121;-88
2022/04/13 08:39:39;;;;;;;6.65;1.95;;;13.40;99.90;;;;;;5035679;28;20032;-88
2022/04/13 08:42:08;;;;;;;5.10;2.10;;;13.40;99.90;;;;;;5035602;28;20044;-87
2022/04/13 08:44:39;;;;;;;6.32;2.10;;;13.40;99.90;;;;;;5053122;28;20025;-88
2022/04/13 08:47:12;;;;;;;3.72;1.85;;;13.50;99.90;;;;;;5035363;28;20452;-88
2022/04/13 08:49:44;;;;;;;2.97;1.92;;;13.50;99.90;;;;;;5035386;28;20067;-89
2022/04/13 08:52:14;;;;;;;3.97;1.92;;;13.50;99.90;;;;;;5052954;28;20357;-87
2022/04/13 08:55:11;;;;;;;5.18;2.35;;;13.60;99.90;;;;;;5034949;28;20063;-86
2022/04/13 08:57:44;;;;;;;5.00;2.20;;;13.60;99.90;;;;;;5019627;28;20559;-87
2022/04/13 09:00:13;;;;;;;3.80;1.95;;;13.60;99.90;;;;;;5052846;28;20029;-87
2022/04/13 09:03:06;;;;;;;4.68;1.95;;;13.70;99.90;;;;;;5034908;28;20053;-87
2022/04/13 09:05:33;;;;;;;3.90;1.90;;;13.70;99.90;;;;;;5053203;28;20017;-87
2022/04/13 09:08:25;;;;;;;4.45;2.22;;;13.80;99.90;;;;;;5054478;28;20045;-87
2022/04/13 09:10:53;;;;;;;3.65;2.00;;;13.80;99.90;;;;;;5038977;28;20056;-88
2022/04/13 09:13:29;;;;;;;3.08;1.92;;;13.80;99.90;;;;;;5038940;28;20032;-87
2022/04/13 09:15:56;;;;;;;7.63;2.13;;;13.90;99.90;;;;;;5039356;28;20112;-87
2022/04/13 09:18:22;;;;;;;3.67;1.95;;;13.90;99.90;;;;;;5038846;28;20028;-87
2022/04/13 09:20:48;;;;;;;3.95;2.20;;;13.90;99.90;;;;;;5038508;28;20107;-87
2022/04/13 09:23:16;;;;;;;5.43;2.00;;;14.00;99.90;;;;;;5038571;28;20455;-87
2022/04/13 09:25:42;;;;;;;4.03;2.20;;;14.00;99.90;;;;;;5038598;28;20469;-87
2022/04/13 09:28:08;;;;;;;6.60;2.22;;;14.00;99.90;;;;;;5038667;28;20021;-87
2022/04/13 09:30:34;;;;;;;2.80;1.67;;;14.00;99.90;;;;;;5038536;28;20018;-87
2022/04/13 09:33:03;;;;;;;5.47;1.90;;;14.00;99.90;;;;;;5038219;28;20025;-87
2022/04/13 09:35:33;;;;;;;5.35;1.80;;;14.10;99.90;;;;;;5056308;28;20078;-87
2022/04/13 09:38:06;;;;;;;4.05;2.05;;;14.10;99.90;;;;;;5056543;28;20025;-87
2022/04/13 09:40:37;;;;;;;3.25;2.00;;;14.10;99.90;;;;;;5038157;28;20082;-87
2022/04/13 09:43:13;;;;;;;4.97;1.73;;;14.20;99.90;;;;;;5055996;28;20453;-87
2022/04/13 09:45:47;;;;;;;4.05;1.80;;;14.20;99.90;;;;;;5056032;28;20032;-88
2022/04/13 09:48:15;;;;;;;4.40;1.90;;;14.20;99.90;;;;;;5037941;28;20078;-87
2022/04/13 09:50:43;;;;;;;6.93;1.75;;;14.30;99.90;;;;;;5055957;28;20029;-87
2022/04/13 09:53:09;;;;;;;4.38;2.08;;;14.30;99.90;;;;;;5037937;28;20426;-86
2022/04/13 09:55:49;;;;;;;5.28;1.90;;;14.30;99.90;;;;;;5037986;28;20025;-87
2022/04/13 09:58:17;;;;;;;5.50;1.90;;;14.30;99.90;;;;;;5038034;28;20021;-87
2022/04/13 10:00:46;;;;;;;3.72;1.88;;;14.40;99.90;;;;;;5037999;28;20112;-88
2022/04/13 10:03:19;;;;;;;6.70;1.88;;;14.40;99.90;;;;;;5055647;28;20014;-86
2022/04/13 10:05:49;;;;;;;4.72;2.10;;;14.40;99.90;;;;;;5037996;28;20032;-86
2022/04/13 10:08:18;;;;;;;7.55;2.60;;;14.50;99.90;;;;;;5037768;28;20048;-87
2022/04/13 10:10:46;;;;;;;4.82;1.90;;;14.50;99.90;;;;;;5037807;28;20050;-87
2022/04/13 10:13:32;;;;;;;5.22;1.80;;;14.50;99.90;;;;;;5055658;28;20033;-87
2022/04/13 10:16:00;;;;;;;7.70;1.85;;;14.50;99.90;;;;;;5037621;28;20538;-87
2022/04/13 10:18:25;;;;;;;7.57;1.90;;;14.60;99.90;;;;;;5055185;28;20551;-87
2022/04/13 10:20:51;;;;;;;5.63;1.67;;;14.60;99.90;;;;;;5036699;28;20080;-87
2022/04/13 10:23:17;;;;;;;4.65;1.95;;;14.60;99.90;;;;;;5037427;28;20033;-87
2022/04/13 10:25:44;;;;;;;4.88;1.80;;;14.60;99.90;;;;;;5037378;28;20059;-86
2022/04/13 10:28:12;;;;;;;4.63;1.60;;;14.70;99.90;;;;;;5037527;28;20083;-87
2022/04/13 10:30:41;;;;;;;3.55;1.70;;;14.70;99.90;;;;;;5037524;28;20025;-87
2022/04/13 10:33:15;;;;;;;4.70;1.58;;;14.70;99.90;;;;;;5055564;28;20023;-88
2022/04/13 10:35:45;;;;;;;6.63;1.67;;;14.70;99.90;;;;;;5037281;28;20025;-88
2022/04/13 10:38:12;;;;;;;5.97;1.60;;;14.80;99.90;;;;;;5037229;28;20024;-87
2022/04/13 10:40:41;;;;;;;8.95;1.60;;;14.80;99.90;;;;;;5037516;28;20036;-87
2022/04/13 10:43:11;;;;;;;4.43;1.83;;;14.80;99.90;;;;;;5037126;28;20017;-86
2022/04/13 10:45:39;;;;;;;5.80;1.95;;;14.90;99.90;;;;;;5055159;28;20138;-88
2022/04/13 10:48:06;;;;;;;6.10;1.67;;;14.90;99.90;;;;;;5055171;28;20048;-87
2022/04/13 10:50:39;;;;;;;8.43;1.83;;;14.90;99.90;;;;;;5020846;28;20025;-88
2022/04/13 10:53:16;;;;;;;4.88;1.60;;;14.90;99.90;;;;;;5037643;28;20025;-88
2022/04/13 10:55:44;;;;;;;8.13;1.40;;;15.00;99.90;;;;;;5037164;28;20025;-88
2022/04/13 10:58:39;;;;;;;5.53;1.80;;;15.00;99.90;;;;;;5036793;28;20123;-87
2022/04/13 11:01:05;;;;;;;;;;;15.00;99.90;;;;;;5020249;28;20031;-87
2022/04/13 11:03:36;;;;;;;5.88;1.67;;;15.10;99.90;;;;;;5037663;28;19916;-88
2022/04/13 11:06:07;;;;;;;3.13;1.38;;;15.10;99.90;;;;;;5054770;28;20036;-87
2022/04/13 11:08:44;;;;;;;6.60;1.63;;;15.10;99.90;;;;;;5036759;28;20021;-87
2022/04/13 11:11:18;;;;;;;6.40;1.83;;;15.10;99.90;;;;;;5036950;28;20052;-87
2022/04/13 11:13:46;;;;;;;5.47;1.40;;;15.10;99.90;;;;;;5036732;28;20028;-88
2022/04/13 11:16:16;;;;;;;5.00;1.80;;;15.10;99.90;;;;;;5036653;28;20033;-87
2022/04/13 11:18:42;;;;;;;5.97;1.50;;;15.10;99.90;;;;;;5037201;28;20025;-89
2022/04/13 11:21:09;;;;;;;3.88;1.70;;;15.20;99.90;;;;;;5054245;28;20052;-89
2022/04/13 11:23:51;;;;;;;5.32;1.55;;;15.20;99.90;;;;;;5036449;28;20037;-88
2022/04/13 11:26:35;;;;;;;10.68;1.83;;;15.20;99.90;;;;;;5036525;28;20028;-89
2022/04/13 11:29:21;;;;;;;4.50;1.60;;;15.20;99.90;;;;;;5054327;28;20025;-88
2022/04/13 11:32:02;;;;;;;6.95;1.88;;;15.20;99.90;;;;;;5036106;28;20027;-88
2022/04/13 11:34:46;;;;;;;6.25;1.45;;;15.20;99.90;;;;;;5054116;28;20112;-88
2022/04/13 11:37:20;;;;;;;4.93;1.35;;;15.30;99.90;;;;;;5036607;28;20021;-88
2022/04/13 11:39:50;;;;;;;5.87;1.60;;;15.30;99.90;;;;;;5036200;28;20029;-88
2022/04/13 11:42:19;;;;;;;4.53;1.60;;;15.30;99.90;;;;;;5036683;28;20052;-88
2022/04/13 11:44:59;;;;;;;6.07;1.63;;;15.30;99.90;;;;;;5037052;28;20041;-88
2022/04/13 11:47:41;;;;;;;5.38;1.70;;;15.40;99.90;;;;;;5036164;28;20479;-87
2022/04/13 11:50:32;;;;;;;3.47;1.40;;;15.40;99.90;;;;;;5035876;28;20021;-88
2022/04/13 11:52:57;;;;;;;8.02;2.03;;;15.40;99.90;;;;;;5026995;28;20040;-89
2022/04/13 11:55:23;;;;;;;4.85;1.38;;;15.40;99.90;;;;;;5053791;28;20029;-88
2022/04/13 11:57:58;;;;;;;3.72;1.40;;;15.40;99.90;;;;;;5036161;28;20035;-88
2022/04/13 12:00:42;;;;;;;3.53;1.40;;;15.50;99.90;;;;;;5053959;28;20147;-88
2022/04/13 12:03:17;;;;;;;5.15;1.40;;;15.50;99.90;;;;;;5054043;28;20039;-88
2022/04/13 12:05:48;;;;;;;6.18;1.30;;;15.50;99.90;;;;;;5036428;28;20017;-88
2022/04/13 12:08:15;;;;;;;6.68;2.00;;;15.50;99.90;;;;;;5035805;28;20024;-87
2022/04/13 12:10:49;;;;;;;6.20;1.50;;;15.50;99.90;;;;;;5053982;28;20025;-88
2022/04/13 12:13:16;;;;;;;6.43;1.55;;;15.50;99.90;;;;;;5035745;28;20025;-87
2022/04/13 12:15:44;;;;;;;3.63;1.20;;;15.60;99.90;;;;;;5035716;28;20455;-87
2022/04/13 12:18:10;;;;;;;7.38;2.17;;;15.60;99.90;;;;;;5035368;28;20017;-87
2022/04/13 12:20:36;;;;;;;6.72;1.50;;;15.60;99.90;;;;;;5053341;28;20115;-87
2022/04/13 12:23:17;;;;;;;3.53;1.15;;;15.70;99.90;;;;;;5035562;28;20017;-87
2022/04/13 12:25:44;;;;;;;6.32;1.50;;;15.70;99.90;;;;;;5035442;28;20017;-89
2022/04/13 12:28:10;;;;;;;7.30;1.77;;;15.80;99.90;;;;;;5053354;28;20031;-88
2022/04/13 12:30:35;;;;;;;5.50;1.45;;;15.80;99.90;;;;;;5035543;28;20547;-88
2022/04/13 12:33:13;;;;;;;6.00;1.50;;;15.80;99.90;;;;;;5035356;28;20090;-88
2022/04/13 12:35:50;;;;;;;5.05;1.70;;;15.90;99.90;;;;;;5035377;28;20021;-88
2022/04/13 12:38:35;;;;;;;4.82;1.50;;;16.00;99.90;;;;;;5035279;28;20449;-88
2022/04/13 12:41:02;;;;;;;7.05;1.42;;;16.10;99.90;;;;;;5052977;28;20021;-88
2022/04/13 12:43:28;;;;;;;3.83;1.45;;;16.10;99.90;;;;;;5052139;28;20037;-88
2022/04/13 12:45:55;;;;;;;3.47;1.35;;;16.20;99.90;;;;;;5035115;28;20382;-88
2022/04/13 12:48:27;;;;;;;7.00;1.60;;;16.30;99.90;;;;;;5034998;28;20021;-88
2022/04/13 12:51:01;;;;;;;4.47;1.60;;;16.40;99.90;;;;;;5052750;28;20469;-88
2022/04/13 12:53:27;;;;;;;;;;;16.50;99.90;;;;;;5053200;28;20029;-88